KFXY/FXY METAR and TAF weather

Enter ICAO airport designator
Station Type Date Time Source
KFXY METAR 2021/05/12 23:55 UTC NOAA

KFXY 122355Z AUTO 00000KT 10SM CLR 18/M06 A3035 RMK AO2


Station Type Date Time Source
KFXY Decoded METAR 2021/05/12 23:55 UTC NOAA

Station name not available
May 12, 2021 - 07:55 PM EDT / 2021.05.12 2355 UTC
Wind: Calm:0
Visibility: 10 mile(s):0
Sky conditions: clear
Temperature: 64 F (18 C)
Dew Point: 21 F (-6 C)
Relative Humidity: 18%
Pressure (altimeter): 30.35 in. Hg (1027 hPa)
ob: KFXY 122355Z AUTO 00000KT 10SM CLR 18/M06 A3035 RMK AO2
cycle: 0

Station Type Date Time Source
KFXY TAF UTC NOAA

Error!

Example: see airport list